• Join FlightAware (Why Join?)
  • Login
  • US Flag 
09:27PM EDT


 

Airport Tracker/Info


-or-


 

Live Flight TrackerFlight Track Log ✈ N503LM ✈ 02-Jun-2014 ✈ KHOU - KCRP

Flight Track Log - Related Links

Times and Time Zones

All times are in EDT time to prevent confusion due to time zone crossing. See the N503LM flight status page for this flight to view local times or setup timezone preferences in your user account.

Time Position Orientation Groundspeed Altitude Reporting Facility
EDT Latitude Longitude Course Direction KTS MPH feet Rate Location/Type
05:40PM 29.6369 -95.2842 179° South 132 152 1,000  Level Houston Center
05:41PM 29.5675 -95.2828 179° South 171 197 4,400 2,100 Climbing Houston Center
05:42PM 29.5564 -95.2803 169° South 166 191 4,900 480 Climbing Houston Center
05:42PM 29.5106 -95.2803 180° South 243 280 4,900  Level Houston Center
05:43PM 29.4950 -95.2794 177° South 219 252 4,900 -120 Level Houston Center
05:43PM 29.4464 -95.2903 191° South 274 315 4,800 60 Descending Houston Center
05:44PM 29.4261 -95.3047 212° Southwest 271 312 5,000 120 Climbing Houston Center
05:44PM 29.3736 -95.3422 212° Southwest 271 312 5,000 60 Level Houston Center
05:45PM 29.3625 -95.3500 211° Southwest 268 308 5,100 960 Climbing Houston Center
05:45PM 29.3247 -95.4033 231° Southwest 245 282 6,000 1,140 Climbing Houston Center
05:46PM 29.3186 -95.4131 234° Southwest 253 291 6,300 1,980 Climbing Houston Center
05:46PM 29.2900 -95.4625 236° Southwest 219 252 8,100 2,100 Climbing Houston Center
05:47PM 29.2853 -95.4694 232° Southwest 214 246 8,500 1,860 Climbing Houston Center
05:47PM 29.2589 -95.5117 234° Southwest 192 221 10,000 2,040 Climbing Houston Center
05:48PM 29.2469 -95.5300 233° Southwest 195 224 10,700 1,500 Climbing Houston Center
05:49PM 29.2178 -95.5878 240° Southwest 208 239 12,200 1,620 Climbing Houston Center
05:50PM 29.1906 -95.6503 243° Southwest 216 249 14,100 1,680 Climbing Houston Center
05:51PM 29.1606 -95.7097 240° Southwest 216 249 15,700 1,380 Climbing Houston Center
05:52PM 29.1150 -95.7669 228° Southwest 241 277 17,000 1,680 Climbing Houston Center
05:53PM 29.0678 -95.8303 230° Southwest 219 252 19,200 1,560 Climbing Houston Center
05:54PM 29.0250 -95.8869 229° Southwest 231 266 20,300 1,200 Climbing Houston Center
05:55PM 28.9819 -95.9439 229° Southwest 237 273 21,800 780 Climbing Houston Center
05:56PM 28.9375 -96.0044 230° Southwest 250 288 22,000 60 Climbing Houston Center
05:57PM 28.8850 -96.0731 229° Southwest 282 325 22,000  Level Houston Center
05:58PM 28.8303 -96.1453 229° Southwest 293 337 22,000  Level Houston Center
05:59PM 28.7628 -96.2333 229° Southwest 301 346 22,000  Level Houston Center
06:00PM 28.7061 -96.3086 229° Southwest 308 354 22,000 -240 Level Houston Center
06:01PM 28.6497 -96.3836 229° Southwest 309 356 21,600 -1,020 Descending Houston Center
06:02PM 28.5881 -96.4653 229° Southwest 341 392 20,000 -1,500 Descending Houston Center
06:03PM 28.5222 -96.5486 228° Southwest 351 404 18,500 -1,560 Descending Houston Center
06:04PM 28.4603 -96.6308 229° Southwest 345 397 16,800 -1,800 Descending Houston Center
06:05PM 28.3858 -96.7300 230° Southwest 345 397 14,800 -1,800 Descending Houston Center
06:06PM 28.3239 -96.8106 229° Southwest 343 395 13,200 -1,620 Descending Houston Center
06:07PM 28.3056 -96.8300 223° Southwest 336 387 12,700 -2,340 Descending Houston Center
06:08PM 28.2628 -96.8889 230° Southwest 335 386 10,800 -2,340 Descending Houston Center
06:08PM 28.2400 -96.9203 231° Southwest 329 379 10,100 -780 Descending Houston Center
06:09PM 28.2083 -96.9706 234° Southwest 303 349 10,000 -120 Descending Houston Center
06:09PM 28.1942 -97.0003 242° Southwest 279 321 10,000  Level Houston Center
06:10PM 28.1694 -97.0481 240° Southwest 279 321 10,000  Level Houston Center
06:10PM 28.1581 -97.0719 242° Southwest 269 310 10,000 -300 Level Houston Center
06:11PM 28.1269 -97.1306 239° Southwest 277 319 9,700 -540 Descending Houston Center
06:11PM 28.1161 -97.1492 237° Southwest 276 318 9,500 -600 Descending Houston Center
06:12PM 28.0875 -97.2072 241° Southwest 277 319 9,100 -540 Descending Houston Center
06:12PM 28.0764 -97.2283 239° Southwest 281 323 9,000 -600 Descending Houston Center
06:13PM 28.0319 -97.2719 221° Southwest 285 328 8,500 -840 Descending Houston Center
06:13PM 28.0172 -97.2842 216° Southwest 284 327 8,200 -1,560 Descending Houston Center
06:14PM 27.9675 -97.3294 219° Southwest 286 329 6,900 -1,920 Descending Houston Center
06:14PM 27.9467 -97.3508 222° Southwest 296 341 6,100 -2,040 Descending Houston Center
06:15PM 27.9033 -97.3914 220° Southwest 295 339 4,800 -1,800 Descending Houston Center
06:15PM 27.8819 -97.4142 223° Southwest 296 341 4,300 -1,980 Descending Houston Center
06:16PM 27.8444 -97.4528 222° Southwest 286 329 2,800 -2,220 Descending Houston Center
06:16PM 27.8294 -97.4736 231° Southwest 277 319 2,100 -1,860 Descending Houston Center
06:17PM 27.7956 -97.5206 231° Southwest 250 288 900 -1,500 Descending Houston Center
06:17PM 27.7886 -97.5242 205° Southwest 168 193 600 -600 Descending Houston Center
06:18PM 27.7678 -97.5075 145° Southeast 181 208 300 -420 Descending Houston Center
06:20PM 27.7667 -97.5000 North  Level FlightAware Approximate